SQP791 UKLL-LBSF
Flight info
| Callsign | SQP791 |
|---|---|
| Flight time | 1h 14m |
| Altitude | 36000 |
| Route | KOKUP M423 RUMUK DCT TIMUR N181 GOL |
| Aircraft | B738/M-SDFGHIJ1RWY/EB1 |
Departure
| Time | 2026-04-22 17:49 |
|---|---|
| Airport | Lviv International Airport (UKLL) |
Arrival
| Time | 2026-04-22 19:04 |
|---|---|
| Airport | Sofia Airport (LBSF) |
| Time | Latitude | Longitude | Altitude | Speed | Heading |
|---|---|---|---|---|---|
| 2026-04-22 17:07 | 49.81326 | 23.95824 | 1050 ft | 0 kts | 46° |
| 2026-04-22 17:38 | 49.81324 | 23.95820 | 1050 ft | 2 kts | 46° |
| 2026-04-22 17:38 | 49.81314 | 23.95804 | 1051 ft | 2 kts | 45° |
| 2026-04-22 17:38 | 49.81303 | 23.95787 | 1051 ft | 2 kts | 46° |
| 2026-04-22 17:38 | 49.81293 | 23.95771 | 1052 ft | 2 kts | 46° |
| 2026-04-22 17:39 | 49.81282 | 23.95753 | 1053 ft | 2 kts | 66° |
| 2026-04-22 17:39 | 49.81280 | 23.95731 | 1053 ft | 2 kts | 104° |
| 2026-04-22 17:39 | 49.81289 | 23.95709 | 1053 ft | 0 kts | 141° |
| 2026-04-22 17:43 | 49.81273 | 23.95729 | 1053 ft | 5 kts | 139° |
| 2026-04-22 17:43 | 49.81236 | 23.95786 | 1052 ft | 9 kts | 134° |
| 2026-04-22 17:44 | 49.81176 | 23.95878 | 1050 ft | 14 kts | 135° |
| 2026-04-22 17:44 | 49.81103 | 23.95989 | 1048 ft | 13 kts | 136° |
| 2026-04-22 17:44 | 49.81020 | 23.96032 | 1047 ft | 9 kts | 179° |
| 2026-04-22 17:44 | 49.80991 | 23.96032 | 1047 ft | 4 kts | 185° |
| 2026-04-22 17:45 | 49.80950 | 23.96026 | 1047 ft | 7 kts | 185° |
| 2026-04-22 17:45 | 49.80890 | 23.96018 | 1047 ft | 9 kts | 182° |
| 2026-04-22 17:45 | 49.80833 | 23.96052 | 1047 ft | 8 kts | 137° |
| 2026-04-22 17:45 | 49.80792 | 23.96114 | 1047 ft | 8 kts | 136° |
| 2026-04-22 17:46 | 49.80738 | 23.96194 | 1046 ft | 14 kts | 136° |
| 2026-04-22 17:46 | 49.80639 | 23.96344 | 1047 ft | 24 kts | 135° |
| 2026-04-22 17:46 | 49.80500 | 23.96553 | 1048 ft | 29 kts | 140° |
| 2026-04-22 17:46 | 49.80362 | 23.96760 | 1050 ft | 26 kts | 136° |
| 2026-04-22 17:47 | 49.80228 | 23.96959 | 1053 ft | 27 kts | 136° |
| 2026-04-22 17:47 | 49.80091 | 23.97161 | 1058 ft | 22 kts | 136° |
| 2026-04-22 17:47 | 49.80008 | 23.97332 | 1063 ft | 16 kts | 100° |
| 2026-04-22 17:47 | 49.79969 | 23.97444 | 1066 ft | 9 kts | 158° |
| 2026-04-22 17:48 | 49.79940 | 23.97425 | 1066 ft | 7 kts | 254° |
| 2026-04-22 17:48 | 49.79973 | 23.97347 | 1064 ft | 3 kts | 315° |
| 2026-04-22 17:48 | 49.79999 | 23.97306 | 1062 ft | 11 kts | 315° |
| 2026-04-22 17:48 | 49.80225 | 23.96968 | 1054 ft | 79 kts | 316° |
| 2026-04-22 17:49 | 49.80773 | 23.96147 | 1047 ft | 137 kts | 316° |
| 2026-04-22 17:49 | 49.81531 | 23.95015 | 1428 ft | 153 kts | 318° |
| 2026-04-22 17:49 | 49.82293 | 23.93994 | 2212 ft | 143 kts | 320° |
| 2026-04-22 17:49 | 49.83057 | 23.92921 | 2577 ft | 159 kts | 317° |
| 2026-04-22 17:50 | 49.83834 | 23.91729 | 3265 ft | 153 kts | 316° |
| 2026-04-22 17:50 | 49.84553 | 23.90593 | 3885 ft | 151 kts | 308° |
| 2026-04-22 17:50 | 49.84806 | 23.88968 | 4289 ft | 170 kts | 264° |
| 2026-04-22 17:50 | 49.84266 | 23.87401 | 4608 ft | 193 kts | 230° |
| 2026-04-22 17:51 | 49.83042 | 23.86333 | 4954 ft | 216 kts | 198° |
| 2026-04-22 17:51 | 49.81483 | 23.85915 | 5314 ft | 235 kts | 191° |
| 2026-04-22 17:51 | 49.79857 | 23.85533 | 5700 ft | 251 kts | 192° |
| 2026-04-22 17:51 | 49.78083 | 23.85036 | 6140 ft | 266 kts | 193° |
| 2026-04-22 17:52 | 49.76215 | 23.84475 | 6571 ft | 281 kts | 193° |
| 2026-04-22 17:52 | 49.74282 | 23.83891 | 7153 ft | 290 kts | 193° |
| 2026-04-22 17:52 | 49.72295 | 23.83295 | 7890 ft | 292 kts | 193° |
| 2026-04-22 17:52 | 49.70319 | 23.82703 | 8613 ft | 294 kts | 192° |
| 2026-04-22 17:53 | 49.68343 | 23.82111 | 9312 ft | 297 kts | 192° |
| 2026-04-22 17:53 | 49.66302 | 23.81502 | 10003 ft | 300 kts | 192° |
| 2026-04-22 17:53 | 49.64218 | 23.80883 | 10431 ft | 313 kts | 191° |
| 2026-04-22 17:53 | 49.62060 | 23.80240 | 10794 ft | 328 kts | 191° |
| 2026-04-22 17:54 | 49.59755 | 23.79555 | 11150 ft | 343 kts | 191° |
| 2026-04-22 17:54 | 49.57367 | 23.78845 | 11466 ft | 359 kts | 191° |
| 2026-04-22 17:54 | 49.54967 | 23.78132 | 11870 ft | 370 kts | 191° |
| 2026-04-22 17:54 | 49.52414 | 23.77376 | 12587 ft | 373 kts | 191° |
| 2026-04-22 17:55 | 49.50767 | 23.76889 | 13030 ft | 375 kts | 191° |
| 2026-04-22 17:55 | 49.47353 | 23.75884 | 13902 ft | 382 kts | 190° |
| 2026-04-22 17:55 | 49.44723 | 23.75112 | 14592 ft | 386 kts | 190° |
| 2026-04-22 17:55 | 49.42080 | 23.74338 | 15321 ft | 389 kts | 190° |
| 2026-04-22 17:56 | 49.39419 | 23.73558 | 16023 ft | 393 kts | 190° |
| 2026-04-22 17:56 | 49.37044 | 23.72862 | 16642 ft | 396 kts | 189° |
| 2026-04-22 17:56 | 49.36897 | 23.72819 | 16678 ft | 396 kts | 189° |
| 2026-04-22 17:57 | 49.34253 | 23.72043 | 17377 ft | 399 kts | 189° |
| 2026-04-22 17:57 | 49.31482 | 23.71229 | 18001 ft | 404 kts | 189° |
| 2026-04-22 17:57 | 49.28722 | 23.70419 | 18673 ft | 407 kts | 189° |
| 2026-04-22 17:57 | 49.25914 | 23.69596 | 19287 ft | 411 kts | 189° |
| 2026-04-22 17:58 | 49.23117 | 23.68776 | 19852 ft | 416 kts | 188° |
| 2026-04-22 17:58 | 49.20375 | 23.67974 | 20441 ft | 420 kts | 188° |
| 2026-04-22 17:58 | 49.17399 | 23.67104 | 21001 ft | 425 kts | 188° |
| 2026-04-22 17:58 | 49.14510 | 23.66261 | 21570 ft | 429 kts | 188° |
| 2026-04-22 17:59 | 49.11527 | 23.65392 | 22096 ft | 433 kts | 188° |
| 2026-04-22 17:59 | 49.08572 | 23.64532 | 22671 ft | 436 kts | 187° |
| 2026-04-22 17:59 | 49.05681 | 23.63691 | 23174 ft | 440 kts | 187° |
| 2026-04-22 17:59 | 49.02672 | 23.62817 | 23647 ft | 445 kts | 187° |
| 2026-04-22 18:00 | 49.00625 | 23.62223 | 24019 ft | 446 kts | 187° |
| 2026-04-22 18:00 | 48.96501 | 23.61028 | 24666 ft | 452 kts | 187° |
| 2026-04-22 18:00 | 48.93413 | 23.60134 | 25127 ft | 455 kts | 186° |
| 2026-04-22 18:00 | 48.90252 | 23.59221 | 25605 ft | 459 kts | 187° |
| 2026-04-22 18:01 | 48.87111 | 23.58315 | 26124 ft | 461 kts | 186° |
| 2026-04-22 18:01 | 48.84535 | 23.57572 | 26369 ft | 466 kts | 186° |
| 2026-04-22 18:01 | 48.81382 | 23.56664 | 26875 ft | 467 kts | 186° |
| 2026-04-22 18:01 | 48.78194 | 23.55748 | 27229 ft | 472 kts | 186° |
| 2026-04-22 18:02 | 48.74947 | 23.54816 | 27641 ft | 475 kts | 186° |
| 2026-04-22 18:02 | 48.71689 | 23.53885 | 28008 ft | 479 kts | 186° |
| 2026-04-22 18:02 | 48.68436 | 23.52957 | 28438 ft | 481 kts | 186° |
| 2026-04-22 18:02 | 48.65350 | 23.52075 | 28739 ft | 485 kts | 187° |
| 2026-04-22 18:03 | 48.62017 | 23.51120 | 29196 ft | 486 kts | 187° |
| 2026-04-22 18:03 | 48.58700 | 23.50168 | 29853 ft | 482 kts | 186° |
| 2026-04-22 18:03 | 48.55553 | 23.49266 | 30076 ft | 488 kts | 187° |
| 2026-04-22 18:03 | 48.52175 | 23.48303 | 30518 ft | 488 kts | 187° |
| 2026-04-22 18:04 | 48.48820 | 23.47346 | 30974 ft | 488 kts | 187° |
| 2026-04-22 18:04 | 48.45450 | 23.46387 | 31424 ft | 487 kts | 187° |
| 2026-04-22 18:04 | 48.42159 | 23.45452 | 31899 ft | 484 kts | 187° |
| 2026-04-22 18:04 | 48.38829 | 23.44505 | 32392 ft | 482 kts | 187° |
| 2026-04-22 18:05 | 48.35548 | 23.43574 | 32737 ft | 481 kts | 187° |
| 2026-04-22 18:05 | 48.32262 | 23.42645 | 33056 ft | 480 kts | 187° |
| 2026-04-22 18:05 | 48.29030 | 23.41731 | 33401 ft | 478 kts | 187° |
| 2026-04-22 18:05 | 48.25729 | 23.40800 | 33657 ft | 479 kts | 188° |
| 2026-04-22 18:06 | 48.22453 | 23.39879 | 33913 ft | 479 kts | 188° |
| 2026-04-22 18:06 | 48.19142 | 23.38947 | 34169 ft | 478 kts | 188° |
| 2026-04-22 18:06 | 48.15884 | 23.38032 | 34420 ft | 478 kts | 188° |
| 2026-04-22 18:06 | 48.12619 | 23.37117 | 34669 ft | 479 kts | 188° |
| 2026-04-22 18:07 | 48.10403 | 23.36497 | 34847 ft | 478 kts | 188° |
| 2026-04-22 18:07 | 48.06057 | 23.35353 | 35040 ft | 479 kts | 186° |
| 2026-04-22 18:07 | 48.02748 | 23.34849 | 35051 ft | 474 kts | 179° |
| 2026-04-22 18:08 | 47.96220 | 23.35411 | 35075 ft | 466 kts | 169° |
| 2026-04-22 18:08 | 47.89928 | 23.36819 | 35073 ft | 465 kts | 167° |
| 2026-04-22 18:09 | 47.83534 | 23.38399 | 35071 ft | 465 kts | 167° |
| 2026-04-22 18:09 | 47.77592 | 23.39821 | 35076 ft | 466 kts | 167° |
| 2026-04-22 18:10 | 47.70890 | 23.41361 | 35074 ft | 466 kts | 167° |
| 2026-04-22 18:10 | 47.64478 | 23.42795 | 35079 ft | 465 kts | 168° |
| 2026-04-22 18:11 | 47.58077 | 23.44208 | 35081 ft | 463 kts | 168° |
| 2026-04-22 18:11 | 47.51718 | 23.45604 | 35078 ft | 464 kts | 168° |
| 2026-04-22 18:12 | 47.45319 | 23.47006 | 35069 ft | 464 kts | 168° |
| 2026-04-22 18:12 | 47.40031 | 23.48161 | 35077 ft | 465 kts | 168° |
| 2026-04-22 18:13 | 47.32629 | 23.49773 | 35075 ft | 463 kts | 168° |
| 2026-04-22 18:13 | 47.26276 | 23.51155 | 35072 ft | 464 kts | 168° |
| 2026-04-22 18:14 | 47.19859 | 23.52547 | 35081 ft | 463 kts | 169° |
| 2026-04-22 18:14 | 47.13518 | 23.53918 | 35082 ft | 463 kts | 169° |
| 2026-04-22 18:15 | 47.07156 | 23.55291 | 35074 ft | 462 kts | 169° |
| 2026-04-22 18:15 | 47.00793 | 23.56662 | 35074 ft | 462 kts | 169° |
| 2026-04-22 18:16 | 46.94414 | 23.58033 | 35080 ft | 462 kts | 169° |
| 2026-04-22 18:16 | 46.92072 | 23.58536 | 35078 ft | 463 kts | 169° |
| 2026-04-22 18:17 | 46.85787 | 23.59884 | 35084 ft | 463 kts | 169° |
| 2026-04-22 18:17 | 46.80473 | 23.61020 | 35082 ft | 463 kts | 169° |
| 2026-04-22 18:18 | 46.76369 | 23.61895 | 35084 ft | 463 kts | 169° |
| 2026-04-22 18:18 | 46.70739 | 23.63093 | 35083 ft | 463 kts | 169° |
| 2026-04-22 18:19 | 46.64935 | 23.64326 | 35081 ft | 464 kts | 169° |
| 2026-04-22 18:19 | 46.58493 | 23.65692 | 35078 ft | 465 kts | 171° |
| 2026-04-22 18:20 | 46.52449 | 23.66970 | 35077 ft | 464 kts | 171° |
| 2026-04-22 18:20 | 46.46003 | 23.68330 | 35072 ft | 464 kts | 171° |
| 2026-04-22 18:21 | 46.39639 | 23.69669 | 35074 ft | 463 kts | 171° |
| 2026-04-22 18:21 | 46.33333 | 23.70993 | 35070 ft | 463 kts | 171° |
| 2026-04-22 18:22 | 46.26954 | 23.72329 | 35063 ft | 463 kts | 171° |
| 2026-04-22 18:22 | 46.20627 | 23.73650 | 35067 ft | 463 kts | 171° |
| 2026-04-22 18:23 | 46.14262 | 23.74978 | 35070 ft | 462 kts | 172° |
| 2026-04-22 18:23 | 46.07874 | 23.76308 | 35069 ft | 463 kts | 172° |
| 2026-04-22 18:24 | 45.98334 | 23.78287 | 35064 ft | 462 kts | 172° |
| 2026-04-22 18:25 | 45.88811 | 23.80255 | 35052 ft | 461 kts | 172° |
| 2026-04-22 18:25 | 45.82472 | 23.81561 | 35054 ft | 462 kts | 172° |
| 2026-04-22 18:26 | 45.73027 | 23.83502 | 35042 ft | 462 kts | 172° |
| 2026-04-22 18:26 | 45.66805 | 23.84777 | 35036 ft | 462 kts | 172° |
| 2026-04-22 18:27 | 45.60389 | 23.86088 | 35024 ft | 463 kts | 172° |
| 2026-04-22 18:27 | 45.54028 | 23.87385 | 34994 ft | 462 kts | 172° |
| 2026-04-22 18:28 | 45.47678 | 23.88677 | 34969 ft | 462 kts | 173° |
| 2026-04-22 18:28 | 45.41282 | 23.89976 | 34975 ft | 462 kts | 173° |
| 2026-04-22 18:29 | 45.34946 | 23.91259 | 34984 ft | 461 kts | 173° |
| 2026-04-22 18:29 | 45.28655 | 23.92531 | 34992 ft | 462 kts | 173° |
| 2026-04-22 18:30 | 45.19153 | 23.94447 | 35017 ft | 460 kts | 173° |
| 2026-04-22 18:31 | 45.12791 | 23.95725 | 35035 ft | 460 kts | 173° |
| 2026-04-22 18:31 | 45.06476 | 23.96993 | 35045 ft | 459 kts | 173° |
| 2026-04-22 18:32 | 45.00139 | 23.98261 | 35059 ft | 459 kts | 173° |
| 2026-04-22 18:32 | 44.94004 | 23.99486 | 35066 ft | 458 kts | 173° |
| 2026-04-22 18:33 | 44.87744 | 24.00733 | 35071 ft | 458 kts | 173° |
| 2026-04-22 18:33 | 44.81405 | 24.01993 | 35064 ft | 459 kts | 174° |
| 2026-04-22 18:34 | 44.75095 | 24.03243 | 35063 ft | 459 kts | 174° |
| 2026-04-22 18:34 | 44.68783 | 24.04492 | 35058 ft | 460 kts | 174° |
| 2026-04-22 18:35 | 44.62513 | 24.05731 | 35058 ft | 460 kts | 174° |
| 2026-04-22 18:35 | 44.56260 | 24.06963 | 35058 ft | 460 kts | 174° |
| 2026-04-22 18:36 | 44.49919 | 24.08209 | 35060 ft | 460 kts | 174° |
| 2026-04-22 18:36 | 44.43575 | 24.09453 | 35057 ft | 460 kts | 174° |
| 2026-04-22 18:37 | 44.37264 | 24.10688 | 35051 ft | 459 kts | 174° |
| 2026-04-22 18:37 | 44.31026 | 24.11906 | 35055 ft | 459 kts | 174° |
| 2026-04-22 18:38 | 44.24718 | 24.13135 | 35059 ft | 460 kts | 175° |
| 2026-04-22 18:38 | 44.18454 | 24.14353 | 35055 ft | 458 kts | 175° |
| 2026-04-22 18:39 | 44.09064 | 24.16175 | 35049 ft | 458 kts | 175° |
| 2026-04-22 18:39 | 44.02742 | 24.17397 | 34968 ft | 460 kts | 175° |
| 2026-04-22 18:40 | 43.99582 | 24.18006 | 34688 ft | 460 kts | 175° |
| 2026-04-22 18:40 | 43.96425 | 24.18615 | 34116 ft | 461 kts | 175° |
| 2026-04-22 18:40 | 43.93251 | 24.19226 | 33488 ft | 462 kts | 175° |
| 2026-04-22 18:40 | 43.90074 | 24.19838 | 32987 ft | 462 kts | 175° |
| 2026-04-22 18:41 | 43.86891 | 24.20450 | 32430 ft | 462 kts | 176° |
| 2026-04-22 18:41 | 43.83729 | 24.21058 | 31859 ft | 463 kts | 176° |
| 2026-04-22 18:41 | 43.80626 | 24.21655 | 31280 ft | 461 kts | 176° |
| 2026-04-22 18:41 | 43.77395 | 24.22278 | 30681 ft | 454 kts | 176° |
| 2026-04-22 18:42 | 43.74305 | 24.22875 | 30080 ft | 446 kts | 176° |
| 2026-04-22 18:42 | 43.71265 | 24.23450 | 29461 ft | 438 kts | 177° |
| 2026-04-22 18:42 | 43.68415 | 24.23849 | 29100 ft | 421 kts | 181° |
| 2026-04-22 18:42 | 43.65550 | 24.23977 | 29058 ft | 405 kts | 185° |
| 2026-04-22 18:43 | 43.59982 | 24.23827 | 28603 ft | 396 kts | 187° |
| 2026-04-22 18:43 | 43.57310 | 24.23698 | 28060 ft | 395 kts | 188° |
| 2026-04-22 18:43 | 43.54594 | 24.23568 | 27552 ft | 393 kts | 187° |
| 2026-04-22 18:44 | 43.51920 | 24.23448 | 27053 ft | 392 kts | 187° |
| 2026-04-22 18:44 | 43.49212 | 24.23338 | 26553 ft | 390 kts | 187° |
| 2026-04-22 18:44 | 43.46525 | 24.23237 | 26050 ft | 388 kts | 187° |
| 2026-04-22 18:44 | 43.43846 | 24.23143 | 25531 ft | 386 kts | 187° |
| 2026-04-22 18:45 | 43.41167 | 24.23055 | 25031 ft | 383 kts | 187° |
| 2026-04-22 18:45 | 43.38536 | 24.22977 | 24535 ft | 381 kts | 187° |
| 2026-04-22 18:45 | 43.35891 | 24.22894 | 24002 ft | 377 kts | 187° |
| 2026-04-22 18:45 | 43.33282 | 24.22811 | 23509 ft | 374 kts | 187° |
| 2026-04-22 18:46 | 43.30669 | 24.22727 | 23016 ft | 370 kts | 187° |
| 2026-04-22 18:46 | 43.28130 | 24.22647 | 22533 ft | 366 kts | 187° |
| 2026-04-22 18:46 | 43.25596 | 24.22566 | 22056 ft | 363 kts | 187° |
| 2026-04-22 18:46 | 43.23053 | 24.22486 | 21577 ft | 359 kts | 186° |
| 2026-04-22 18:47 | 43.20603 | 24.22409 | 21107 ft | 356 kts | 186° |
| 2026-04-22 18:47 | 43.18105 | 24.22330 | 20628 ft | 353 kts | 186° |
| 2026-04-22 18:47 | 43.15633 | 24.22241 | 20151 ft | 350 kts | 187° |
| 2026-04-22 18:47 | 43.13207 | 24.21899 | 19676 ft | 343 kts | 195° |
| 2026-04-22 18:48 | 43.10951 | 24.20959 | 19223 ft | 333 kts | 208° |
| 2026-04-22 18:48 | 43.08961 | 24.19467 | 18785 ft | 326 kts | 218° |
| 2026-04-22 18:48 | 43.07170 | 24.17585 | 18345 ft | 324 kts | 224° |
| 2026-04-22 18:48 | 43.05544 | 24.15450 | 17902 ft | 326 kts | 230° |
| 2026-04-22 18:49 | 43.04072 | 24.13103 | 17460 ft | 322 kts | 234° |
| 2026-04-22 18:49 | 43.02692 | 24.10691 | 17016 ft | 319 kts | 235° |
| 2026-04-22 18:49 | 43.01343 | 24.08290 | 16579 ft | 316 kts | 235° |
| 2026-04-22 18:49 | 43.00018 | 24.05962 | 16153 ft | 314 kts | 234° |
| 2026-04-22 18:50 | 42.98658 | 24.03611 | 15723 ft | 311 kts | 234° |
| 2026-04-22 18:50 | 42.97306 | 24.01299 | 15294 ft | 316 kts | 233° |
| 2026-04-22 18:50 | 42.95924 | 23.98943 | 14854 ft | 317 kts | 233° |
| 2026-04-22 18:50 | 42.94566 | 23.96631 | 14421 ft | 314 kts | 233° |
| 2026-04-22 18:51 | 42.93175 | 23.94284 | 13973 ft | 312 kts | 233° |
| 2026-04-22 18:51 | 42.91822 | 23.92001 | 13546 ft | 310 kts | 233° |
| 2026-04-22 18:51 | 42.90467 | 23.89699 | 13116 ft | 308 kts | 233° |
| 2026-04-22 18:51 | 42.89116 | 23.87412 | 12682 ft | 307 kts | 233° |
| 2026-04-22 18:52 | 42.87779 | 23.85164 | 12249 ft | 306 kts | 233° |
| 2026-04-22 18:52 | 42.86533 | 23.83066 | 11925 ft | 301 kts | 233° |
| 2026-04-22 18:52 | 42.85166 | 23.80848 | 11798 ft | 290 kts | 229° |
| 2026-04-22 18:52 | 42.83613 | 23.79192 | 11700 ft | 282 kts | 208° |
| 2026-04-22 18:53 | 42.81724 | 23.78539 | 11605 ft | 275 kts | 187° |
| 2026-04-22 18:53 | 42.79929 | 23.78399 | 11510 ft | 280 kts | 180° |
| 2026-04-22 18:53 | 42.78081 | 23.78793 | 11400 ft | 273 kts | 161° |
| 2026-04-22 18:53 | 42.76483 | 23.80158 | 11213 ft | 264 kts | 130° |
| 2026-04-22 18:54 | 42.75631 | 23.82307 | 10905 ft | 259 kts | 102° |
| 2026-04-22 18:54 | 42.75409 | 23.84695 | 10622 ft | 254 kts | 92° |
| 2026-04-22 18:54 | 42.75273 | 23.87111 | 10339 ft | 252 kts | 92° |
| 2026-04-22 18:54 | 42.75116 | 23.89462 | 10056 ft | 250 kts | 92° |
| 2026-04-22 18:55 | 42.74956 | 23.91805 | 9782 ft | 248 kts | 92° |
| 2026-04-22 18:55 | 42.74687 | 23.94130 | 9499 ft | 248 kts | 103° |
| 2026-04-22 18:55 | 42.73883 | 23.96192 | 9234 ft | 249 kts | 133° |
| 2026-04-22 18:55 | 42.72411 | 23.97438 | 8972 ft | 248 kts | 162° |
| 2026-04-22 18:56 | 42.70727 | 23.97805 | 8713 ft | 246 kts | 180° |
| 2026-04-22 18:56 | 42.69023 | 23.97526 | 8447 ft | 241 kts | 203° |
| 2026-04-22 18:56 | 42.67662 | 23.96219 | 8212 ft | 241 kts | 234° |
| 2026-04-22 18:56 | 42.66817 | 23.94266 | 7977 ft | 237 kts | 253° |
| 2026-04-22 18:57 | 42.66497 | 23.92126 | 7958 ft | 229 kts | 274° |
| 2026-04-22 18:57 | 42.66639 | 23.89969 | 7959 ft | 230 kts | 281° |
| 2026-04-22 18:57 | 42.66843 | 23.87805 | 7953 ft | 230 kts | 280° |
| 2026-04-22 18:57 | 42.67005 | 23.85604 | 7756 ft | 234 kts | 278° |
| 2026-04-22 18:58 | 42.67086 | 23.83472 | 7669 ft | 228 kts | 276° |
| 2026-04-22 18:58 | 42.67161 | 23.81325 | 7458 ft | 224 kts | 277° |
| 2026-04-22 18:58 | 42.67284 | 23.79187 | 7061 ft | 227 kts | 279° |
| 2026-04-22 18:58 | 42.67430 | 23.77057 | 6738 ft | 226 kts | 279° |
| 2026-04-22 18:59 | 42.67568 | 23.74948 | 6400 ft | 224 kts | 279° |
| 2026-04-22 18:59 | 42.67700 | 23.72856 | 6075 ft | 222 kts | 279° |
| 2026-04-22 18:59 | 42.67832 | 23.70766 | 5755 ft | 219 kts | 279° |
| 2026-04-22 18:59 | 42.67960 | 23.68747 | 5448 ft | 217 kts | 278° |
| 2026-04-22 19:00 | 42.68090 | 23.66700 | 5128 ft | 213 kts | 278° |
| 2026-04-22 19:00 | 42.68215 | 23.64713 | 4837 ft | 207 kts | 278° |
| 2026-04-22 19:00 | 42.68336 | 23.62791 | 4549 ft | 202 kts | 278° |
| 2026-04-22 19:00 | 42.68454 | 23.60900 | 4266 ft | 197 kts | 278° |
| 2026-04-22 19:01 | 42.68569 | 23.59059 | 3992 ft | 193 kts | 278° |
| 2026-04-22 19:01 | 42.68676 | 23.57317 | 3747 ft | 178 kts | 278° |
| 2026-04-22 19:01 | 42.68776 | 23.55696 | 3490 ft | 164 kts | 278° |
| 2026-04-22 19:01 | 42.68870 | 23.54190 | 3271 ft | 158 kts | 278° |
| 2026-04-22 19:02 | 42.68964 | 23.52698 | 3055 ft | 157 kts | 278° |
| 2026-04-22 19:02 | 42.69055 | 23.51226 | 2840 ft | 157 kts | 277° |
| 2026-04-22 19:02 | 42.69145 | 23.49752 | 2626 ft | 157 kts | 278° |
| 2026-04-22 19:02 | 42.69279 | 23.48271 | 2406 ft | 155 kts | 278° |
| 2026-04-22 19:03 | 42.69335 | 23.46822 | 2192 ft | 155 kts | 273° |
| 2026-04-22 19:03 | 42.69420 | 23.45399 | 1975 ft | 148 kts | 279° |
| 2026-04-22 19:03 | 42.69510 | 23.43998 | 1801 ft | 147 kts | 273° |
| 2026-04-22 19:03 | 42.69583 | 23.42678 | 1741 ft | 124 kts | 272° |
| 2026-04-22 19:04 | 42.69647 | 23.41761 | 1746 ft | 73 kts | 276° |
| 2026-04-22 19:04 | 42.69673 | 23.41248 | 1747 ft | 44 kts | 275° |
| 2026-04-22 19:04 | 42.69672 | 23.40918 | 1748 ft | 27 kts | 256° |
| 2026-04-22 19:04 | 42.69605 | 23.40718 | 1749 ft | 18 kts | 245° |
| 2026-04-22 19:05 | 42.69556 | 23.40685 | 1750 ft | 5 kts | 174° |
| 2026-04-22 19:05 | 42.69520 | 23.40726 | 1750 ft | 8 kts | 113° |
| 2026-04-22 19:05 | 42.69510 | 23.40818 | 1750 ft | 11 kts | 91° |
| 2026-04-22 19:05 | 42.69506 | 23.40925 | 1750 ft | 12 kts | 95° |
| 2026-04-22 19:06 | 42.69497 | 23.41046 | 1749 ft | 13 kts | 96° |
| 2026-04-22 19:06 | 42.69488 | 23.41163 | 1749 ft | 11 kts | 104° |
| 2026-04-22 19:06 | 42.69428 | 23.41207 | 1749 ft | 10 kts | 190° |
| 2026-04-22 19:07 | 42.69309 | 23.41171 | 1750 ft | 8 kts | 190° |
| 2026-04-22 19:07 | 42.69239 | 23.41154 | 1751 ft | 11 kts | 193° |
| 2026-04-22 19:07 | 42.69180 | 23.41132 | 1751 ft | 0 kts | 195° |
| 2026-04-22 19:07 | 42.69149 | 23.41120 | 1752 ft | 10 kts | 202° |
| 2026-04-22 19:08 | 42.69103 | 23.41009 | 1753 ft | 14 kts | 253° |
| 2026-04-22 19:08 | 42.69059 | 23.40977 | 1753 ft | 7 kts | 165° |
| 2026-04-22 19:08 | 42.69031 | 23.40989 | 1754 ft | 3 kts | 163° |
| 2026-04-22 19:08 | 42.69008 | 23.40999 | 1754 ft | 0 kts | 163° |
| 2026-04-22 19:09 | 42.69007 | 23.40999 | 1754 ft | 0 kts | 163° |